Time;durP1;ratioP1;P1;durP2;ratioP2;P2;SDS_P1;SDS_P2;PMS_P1;PMS_P2;Temp;Humidity;BMP_temperature;BMP_pressure;BME280_temperature;BME280_humidity;BME280_pressure;Samples;Min_cycle;Max_cycle;Signal;HPM_P1;HPM_P2
2021/05/05 00:02:14;;;;;;;4.27;1.93;;;;;;;10.06;55.41;97616.29;128902;1098;62074;-81
2021/05/05 00:05:31;;;;;;;2.67;1.87;;;;;;;10.02;55.41;97616.56;128868;1098;61928;-80
2021/05/05 00:08:15;;;;;;;3.23;1.73;;;;;;;9.99;55.43;97616.86;128834;1101;61967;-81
2021/05/05 00:11:19;;;;;;;3.20;1.97;;;;;;;9.98;55.40;97619.64;128837;1098;61998;-82
2021/05/05 00:14:17;;;;;;;3.70;2.17;;;;;;;10.02;55.74;97623.72;128916;1098;61956;-81
2021/05/05 00:17:18;;;;;;;3.53;2.00;;;;;;;10.12;55.80;97615.72;128870;1099;61913;-81
2021/05/05 00:20:20;;;;;;;2.83;1.90;;;;;;;10.21;55.51;97626.36;128884;1098;61899;-81
2021/05/05 00:23:10;;;;;;;3.87;2.20;;;;;;;10.27;55.55;97617.81;128875;1099;62034;-81
2021/05/05 00:26:38;;;;;;;3.47;2.00;;;;;;;10.34;55.54;97619.91;128861;1098;62027;-82
2021/05/05 00:29:18;;;;;;;;;;;;;;;;;;;;;
2021/05/05 00:32:18;;;;;;;6.23;3.20;;;;;;;10.40;55.96;97612.17;128932;1098;62152;-81
2021/05/05 00:35:16;;;;;;;5.93;3.30;;;;;;;10.44;55.55;97613.58;128885;1098;61928;-81
2021/05/05 00:38:31;;;;;;;3.77;2.10;;;;;;;10.46;55.74;97603.59;128935;1098;61899;-81
2021/05/05 00:41:35;;;;;;;3.08;1.83;;;;;;;10.52;55.80;97603.00;128899;1098;63197;-81
2021/05/05 00:44:23;;;;;;;2.23;1.43;;;;;;;10.52;55.75;97613.68;128852;1099;61980;-82
2021/05/05 00:47:30;;;;;;;1.90;0.97;;;;;;;10.51;55.72;97612.00;128922;1098;62010;-82
2021/05/05 00:50:13;;;;;;;4.03;1.47;;;;;;;10.43;56.15;97614.56;128861;1098;62050;-81
2021/05/05 00:52:56;;;;;;;1.67;1.00;;;;;;;10.28;55.99;97613.32;128871;1098;62083;-82
2021/05/05 00:55:36;;;;;;;1.67;1.57;;;;;;;10.11;56.33;97616.68;128875;1099;63236;-81
2021/05/05 00:58:18;;;;;;;4.27;1.30;;;;;;;9.98;56.38;97604.48;128882;1098;61904;-81
2021/05/05 01:01:16;;;;;;;4.53;1.23;;;;;;;9.90;56.26;97604.36;128812;1101;61817;-81
2021/05/05 01:03:56;;;;;;;4.23;1.70;;;;;;;9.83;56.20;97616.58;129127;1098;61923;-81
2021/05/05 01:06:34;;;;;;;3.17;1.40;;;;;;;9.79;56.49;97623.16;128863;1099;61896;-82
2021/05/05 01:09:12;;;;;;;3.20;1.40;;;;;;;9.74;56.68;97620.94;128885;1099;62871;-83
2021/05/05 01:12:21;;;;;;;3.70;1.20;;;;;;;9.73;56.62;97621.05;128854;1098;62190;-82
2021/05/05 01:15:08;;;;;;;3.20;1.27;;;;;;;9.74;56.50;97606.77;128817;1101;62040;-81
2021/05/05 01:17:58;;;;;;;3.70;1.30;;;;;;;9.75;56.61;97609.28;128840;1098;62030;-83
2021/05/05 01:20:54;;;;;;;2.67;1.30;;;;;;;9.75;56.58;97603.95;128862;1098;62002;-82
2021/05/05 01:23:42;;;;;;;3.40;1.40;;;;;;;9.77;56.80;97601.14;128899;1099;61914;-82
2021/05/05 01:26:46;;;;;;;3.98;1.30;;;;;;;9.77;56.47;97602.97;129118;1098;62007;-82
2021/05/05 01:29:51;;;;;;;4.65;1.55;;;;;;;9.75;57.25;97597.78;128898;1098;61966;-82
2021/05/05 01:32:30;;;;;;;2.60;1.27;;;;;;;9.73;57.13;97605.93;128898;1098;62024;-82
2021/05/05 01:35:05;;;;;;;3.70;1.10;;;;;;;9.74;57.01;97596.95;128894;1098;61948;-82
2021/05/05 01:37:43;;;;;;;1.70;1.13;;;;;;;9.75;57.29;97603.95;128884;1098;62882;-82
2021/05/05 01:40:53;;;;;;;2.03;1.10;;;;;;;9.77;57.43;97606.47;128834;1098;61956;-81
2021/05/05 01:43:32;;;;;;;3.80;1.50;;;;;;;9.79;57.33;97600.99;128882;1099;61861;-82
2021/05/05 01:46:05;;;;;;;4.13;1.50;;;;;;;9.80;57.62;97594.67;129183;1098;61934;-81
2021/05/05 01:48:46;;;;;;;3.73;1.43;;;;;;;9.82;57.74;97592.73;128905;1098;61902;-81
2021/05/05 01:51:32;;;;;;;2.37;1.80;;;;;;;9.79;57.46;97583.17;128847;1099;62007;-81
2021/05/05 01:54:18;;;;;;;2.57;1.70;;;;;;;9.74;57.61;97582.78;129161;1098;61869;-81
2021/05/05 01:57:42;;;;;;;;;;;;;;;;;;;;;
2021/05/05 02:01:03;;;;;;;;;;;;;;;;;;;;;
2021/05/05 02:04:52;;;;;;;1.90;1.57;;;;;;;9.52;57.96;97569.72;129154;1098;63798;-81
2021/05/05 02:08:17;;;;;;;2.63;1.80;;;;;;;9.45;57.82;97564.95;128661;1101;63441;-81
2021/05/05 02:11:50;;;;;;;;;;;;;;;;;;;;;
2021/05/05 02:15:19;;;;;;;4.27;2.10;;;;;;;9.45;58.01;97559.63;128788;1101;62025;-81
2021/05/05 02:18:30;;;;;;;2.43;2.00;;;;;;;9.50;58.09;97548.55;128737;1101;62204;-81
2021/05/05 02:21:46;;;;;;;3.30;1.97;;;;;;;9.54;58.38;97549.09;128752;1101;62331;-81
2021/05/05 02:24:46;;;;;;;2.63;1.90;;;;;;;9.52;58.32;97559.90;128787;1101;62878;-81
2021/05/05 02:27:57;;;;;;;;;;;;;;;;;;;;;
2021/05/05 02:31:26;;;;;;;4.33;2.13;;;;;;;9.37;57.81;97562.15;128707;1101;62321;-86
2021/05/05 02:35:12;;;;;;;;;;;;;;;;;;;;;
2021/05/05 02:38:08;;;;;;;4.33;2.40;;;;;;;9.29;58.61;97553.15;128764;1101;62094;-80
2021/05/05 02:41:16;;;;;;;3.47;2.43;;;;;;;9.27;58.57;97549.79;128513;1102;62706;-81
2021/05/05 02:44:53;;;;;;;;;;;;;;;;;;;;;
2021/05/05 02:47:35;;;;;;;3.43;2.10;;;;;;;9.26;58.99;97546.29;128772;1101;62044;-81
2021/05/05 02:50:29;;;;;;;;;;;;;;;;;;;;;
2021/05/05 02:53:21;;;;;;;3.23;2.40;;;;;;;9.24;58.96;97545.59;128550;1101;62057;-81
2021/05/05 02:56:31;;;;;;;3.43;2.27;;;;;;;9.27;59.25;97539.98;128501;1101;62212;-81
2021/05/05 02:59:25;;;;;;;5.87;3.10;;;;;;;9.29;58.94;97548.69;128761;1101;62107;-81
2021/05/05 03:02:14;;;;;;;3.13;2.43;;;;;;;9.26;58.96;97551.62;128760;1101;62057;-81
2021/05/05 03:05:20;;;;;;;3.77;2.10;;;;;;;9.21;59.04;97551.19;128523;1101;62020;-84
2021/05/05 03:08:09;;;;;;;2.53;2.23;;;;;;;9.13;58.95;97553.70;128474;1102;62150;-81
2021/05/05 03:11:23;;;;;;;2.90;2.40;;;;;;;9.03;58.76;97553.67;128739;1101;63057;-82
2021/05/05 03:14:30;;;;;;;3.37;2.50;;;;;;;8.93;59.37;97552.84;128732;1101;62005;-81
2021/05/05 03:17:10;;;;;;;2.60;1.60;;;;;;;8.84;59.03;97558.95;128552;1101;61928;-80
2021/05/05 03:20:20;;;;;;;4.80;1.90;;;;;;;8.78;59.34;97562.16;128664;1100;62409;-81
2021/05/05 03:23:00;;;;;;;3.63;1.67;;;;;;;8.86;59.12;97557.87;128793;1100;62097;-80
2021/05/05 03:26:03;;;;;;;3.27;1.90;;;;;;;8.94;59.01;97560.67;128893;1098;62863;-80
2021/05/05 03:29:27;;;;;;;2.43;1.53;;;;;;;8.98;58.75;97558.59;129137;1098;62191;-81
2021/05/05 03:32:16;;;;;;;3.93;1.80;;;;;;;8.98;58.73;97558.59;128884;1098;61899;-79
2021/05/05 03:34:57;;;;;;;6.20;1.80;;;;;;;8.94;59.01;97555.36;128873;1100;61908;-81
2021/05/05 03:37:58;;;;;;;;;;;;;;;;;;;;;
2021/05/05 03:40:56;;;;;;;;;;;;;;;;;;;;;
2021/05/05 03:43:38;;;;;;;2.83;1.57;;;;;;;8.86;59.03;97552.54;128825;1098;62019;-82
2021/05/05 03:46:24;;;;;;;8.73;2.87;;;;;;;8.82;59.14;97540.47;128851;1098;61961;-81
2021/05/05 03:49:19;;;;;;;1.97;1.77;;;;;;;8.81;59.05;97552.10;128839;1098;61910;-81
2021/05/05 03:52:07;;;;;;;4.03;1.67;;;;;;;8.88;59.11;97563.89;128922;1099;62082;-81
2021/05/05 03:55:04;;;;;;;6.83;1.50;;;;;;;9.03;59.36;97571.48;129131;1098;61956;-81
2021/05/05 03:57:56;;;;;;;;;;;;;;;9.17;58.64;97566.62;128900;1098;62024;-81
2021/05/05 04:01:01;;;;;;;5.77;1.73;;;;;;;9.39;58.60;97560.17;128939;1098;61994;-81
2021/05/05 04:03:51;;;;;;;6.47;1.50;;;;;;;9.63;58.31;97566.92;128854;1098;62240;-81
2021/05/05 04:06:43;;;;;;;1.83;1.23;;;;;;;9.71;58.12;97567.89;128871;1098;62039;-81
2021/05/05 04:09:35;;;;;;;8.20;1.83;;;;;;;9.76;58.23;97567.47;129106;1098;63495;-81
2021/05/05 04:12:30;;;;;;;5.97;1.90;;;;;;;9.78;58.18;97564.66;128876;1098;62101;-81
2021/05/05 04:15:45;;;;;;;;;;;;;;;;;;;;;
2021/05/05 04:18:36;;;;;;;6.33;1.87;;;;;;;9.82;58.56;97564.23;128961;1098;61947;-81
2021/05/05 04:21:26;;;;;;;7.17;2.17;;;;;;;9.86;58.06;97575.45;128870;1098;61845;-81
2021/05/05 04:24:21;;;;;;;6.55;2.60;;;;;;;9.91;58.10;97579.38;128885;1098;62966;-81
2021/05/05 04:27:05;;;;;;;9.17;1.87;;;;;;;9.97;58.05;97576.13;128860;1098;62051;-81
2021/05/05 04:30:20;;;;;;;;;;;;;;;;;;;;;
2021/05/05 04:33:07;;;;;;;13.77;2.90;;;;;;;10.07;57.88;97585.96;128920;1098;61895;-81
2021/05/05 04:35:53;;;;;;;6.83;3.10;;;;;;;10.10;57.85;97577.66;128855;1098;62141;-81
2021/05/05 04:38:39;;;;;;;16.90;5.30;;;;;;;10.16;58.08;97580.59;128913;1099;62983;-81
2021/05/05 04:41:17;;;;;;;16.73;3.20;;;;;;;10.25;57.77;97568.27;128924;1098;61850;-81
2021/05/05 04:44:03;;;;;;;12.07;3.40;;;;;;;10.35;58.04;97565.55;128847;1098;61918;-82
2021/05/05 04:47:59;;;;;;;12.70;3.40;;;;;;;10.42;58.06;97563.98;128906;1098;61919;-81
2021/05/05 04:50:27;;;;;;;13.05;4.00;;;;;;;10.55;57.98;97562.66;128717;1101;61967;-81
2021/05/05 04:53:16;;;;;;;20.77;5.33;;;;;;;10.55;57.89;97556.48;128532;1101;63295;-81
2021/05/05 04:55:57;;;;;;;25.00;3.87;;;;;;;10.58;58.04;97558.88;128548;1101;61966;-80
2021/05/05 04:58:49;;;;;;;9.28;3.05;;;;;;;10.60;57.99;97561.39;128674;1101;62016;-81
2021/05/05 05:01:34;;;;;;;14.20;4.85;;;;;;;10.68;57.86;97559.66;128522;1101;62067;-80
2021/05/05 05:04:32;;;;;;;14.90;6.33;;;;;;;10.72;58.08;97554.88;128807;1101;61970;-81
2021/05/05 05:07:22;;;;;;;21.10;7.37;;;;;;;10.77;57.76;97539.25;128745;1101;62575;-81
2021/05/05 05:09:58;;;;;;;16.13;5.20;;;;;;;10.76;57.99;97542.92;128551;1101;62058;-81
2021/05/05 05:12:35;;;;;;;17.30;4.80;;;;;;;10.79;58.08;97539.94;128508;1101;62019;-81
2021/05/05 05:15:33;;;;;;;14.83;4.80;;;;;;;10.89;57.75;97546.08;128766;1101;61998;-80
2021/05/05 05:18:30;;;;;;;15.67;7.20;;;;;;;11.02;58.21;97540.38;128778;1101;62069;-81
2021/05/05 05:21:18;;;;;;;30.10;15.47;;;;;;;11.15;58.14;97534.67;128508;1101;62965;-80
2021/05/05 05:23:55;;;;;;;15.27;6.47;;;;;;;11.20;57.75;97540.41;128494;1101;62034;-81
2021/05/05 05:26:36;;;;;;;17.68;6.63;;;;;;;11.20;57.85;97538.58;128598;1098;62056;-81
2021/05/05 05:29:09;;;;;;;15.77;4.10;;;;;;;11.42;57.81;97545.29;128864;1098;61927;-80
2021/05/05 05:31:50;;;;;;;9.07;3.73;;;;;;;11.61;57.96;97544.30;128881;1099;61903;-81
2021/05/05 05:34:31;;;;;;;10.70;3.23;;;;;;;11.73;57.80;97539.55;128920;1098;61906;-78
2021/05/05 05:37:00;;;;;;;9.70;4.00;;;;;;;11.77;57.76;97535.55;128767;1101;62036;-78
2021/05/05 05:39:48;;;;;;;;;;;;;;;;;;;;;
2021/05/05 05:42:28;;;;;;;8.83;2.70;;;;;;;11.83;57.49;97533.16;128912;1098;61981;-78
2021/05/05 05:44:56;;;;;;;12.67;3.27;;;;;;;11.89;57.85;97537.86;128880;1099;62002;-78
2021/05/05 05:48:31;;;;;;;7.50;2.50;;;;;;;12.16;58.01;97531.55;128857;1098;62163;-81
2021/05/05 05:52:14;;;;;;;;;;;;;;;;;;;;;
2021/05/05 05:55:32;;;;;;;;;;;;;;;;;;;;;
2021/05/05 05:58:23;;;;;;;;;;;;;;;;;;;;;
2021/05/05 06:02:01;;;;;;;14.47;5.73;;;;;;;12.47;57.65;97547.13;128956;1098;61982;-84
2021/05/05 06:05:19;;;;;;;;;;;;;;;;;;;;;
2021/05/05 06:08:20;;;;;;;;;;;;;;;;;;;;;
2021/05/05 06:10:58;;;;;;;10.27;3.53;;;;;;;12.69;57.88;97554.59;128836;1100;62109;-84
2021/05/05 06:13:47;;;;;;;;;;;;;;;;;;;;;
2021/05/05 06:16:34;;;;;;;12.60;3.37;;;;;;;13.00;57.06;97559.41;128906;1098;61996;-82
2021/05/05 06:19:16;;;;;;;7.17;3.10;;;;;;;13.03;56.90;97553.70;128810;1101;62079;-81
2021/05/05 06:22:18;;;;;;;;;;;;;;;;;;;;;
2021/05/05 06:25:02;;;;;;;6.10;2.83;;;;;;;13.46;56.04;97567.93;128796;1101;62288;-80
2021/05/05 06:27:48;;;;;;;8.43;3.00;;;;;;;13.45;55.76;97566.26;128806;1100;62055;-81
2021/05/05 06:30:25;;;;;;;10.07;3.23;;;;;;;13.43;55.77;97573.63;128776;1101;62171;-81
2021/05/05 06:33:04;;;;;;;7.90;2.20;;;;;;;13.46;55.47;97573.30;128818;1098;63320;-83
2021/05/05 06:36:13;;;;;;;5.80;2.00;;;;;;;13.52;55.37;97565.42;128883;1098;61918;-82
2021/05/05 06:39:13;;;;;;;;;;;;;;;;;;;;;
2021/05/05 06:41:52;;;;;;;9.63;2.23;;;;;;;13.76;55.86;97561.10;128819;1098;62425;-81
2021/05/05 06:44:24;;;;;;;5.63;2.33;;;;;;;13.77;55.16;97554.72;128845;1100;62122;-82
2021/05/05 06:46:56;;;;;;;9.13;2.80;;;;;;;13.78;55.44;97557.23;128846;1100;63515;-82
2021/05/05 06:49:52;;;;;;;10.20;3.07;;;;;;;14.11;55.33;97557.22;128843;1098;62261;-80
2021/05/05 06:52:32;;;;;;;6.93;2.50;;;;;;;14.42;54.71;97545.77;128900;1098;62516;-82
2021/05/05 06:55:10;;;;;;;8.68;2.40;;;;;;;14.20;55.57;97541.96;128866;1099;61965;-82
2021/05/05 06:57:45;;;;;;;6.63;2.83;;;;;;;14.16;55.66;97538.77;128795;1100;62688;-80
2021/05/05 07:00:30;;;;;;;4.83;2.50;;;;;;;14.22;56.00;97540.77;128798;1100;62287;-81
2021/05/05 07:03:10;;;;;;;8.20;2.63;;;;;;;14.18;55.50;97530.53;128816;1098;62071;-80
2021/05/05 07:06:09;;;;;;;8.33;3.60;;;;;;;14.25;55.62;97524.34;128879;1098;62055;-82
2021/05/05 07:09:00;;;;;;;9.87;2.57;;;;;;;14.40;55.40;97528.99;128841;1098;61964;-83
2021/05/05 07:11:35;;;;;;;7.50;2.10;;;;;;;14.40;54.40;97531.68;128873;1098;62124;-84
2021/05/05 07:14:28;;;;;;;7.77;2.90;;;;;;;14.46;55.08;97520.25;128829;1098;63035;-83
2021/05/05 07:17:03;;;;;;;4.23;1.93;;;;;;;14.53;54.04;97507.83;128873;1099;62028;-83
2021/05/05 07:19:44;;;;;;;15.50;3.37;;;;;;;14.45;54.42;97518.58;128828;1099;62046;-80
2021/05/05 07:22:24;;;;;;;9.33;3.83;;;;;;;14.54;54.81;97537.20;128907;1098;62012;-81
2021/05/05 07:25:04;;;;;;;9.10;3.07;;;;;;;14.57;54.30;97517.23;128832;1098;62000;-82
2021/05/05 07:27:43;;;;;;;7.10;2.57;;;;;;;14.67;54.04;97504.41;128837;1100;63041;-82
2021/05/05 07:30:41;;;;;;;10.00;2.87;;;;;;;14.93;54.06;97504.13;128822;1098;62138;-82
2021/05/05 07:33:21;;;;;;;7.63;2.40;;;;;;;15.10;54.38;97499.52;128808;1100;62056;-80
2021/05/05 07:35:58;;;;;;;7.10;1.83;;;;;;;14.95;54.24;97502.13;128832;1098;61970;-82
2021/05/05 07:39:12;;;;;;;4.27;2.20;;;;;;;14.77;54.13;97505.05;128851;1098;62250;-82
2021/05/05 07:45:30;;;;;;;8.10;3.63;;;;;;;14.37;54.17;97503.30;128700;1101;62166;-81
2021/05/05 07:48:26;;;;;;;10.38;3.90;;;;;;;14.16;53.62;97506.55;128504;1101;62418;-81
2021/05/05 07:51:11;;;;;;;10.33;4.20;;;;;;;13.91;53.56;97502.22;128508;1102;62038;-82
2021/05/05 07:53:52;;;;;;;15.67;3.97;;;;;;;13.85;54.01;97509.10;128544;1102;62066;-82
2021/05/05 07:56:30;;;;;;;15.47;2.97;;;;;;;13.87;54.21;97514.29;128787;1101;62786;-82
2021/05/05 07:59:13;;;;;;;7.47;2.50;;;;;;;13.69;53.87;97504.59;128472;1101;61945;-82
2021/05/05 08:01:46;;;;;;;6.80;1.90;;;;;;;13.51;53.82;97509.28;128642;1101;62084;-82
2021/05/05 08:04:37;;;;;;;5.90;2.13;;;;;;;13.32;53.99;97518.47;128492;1101;62155;-83
2021/05/05 08:07:12;;;;;;;3.83;2.27;;;;;;;13.23;53.23;97531.03;128640;1101;62004;-82
2021/05/05 08:09:50;;;;;;;8.53;2.20;;;;;;;13.12;53.46;97541.19;128740;1101;62567;-82
2021/05/05 08:12:48;;;;;;;8.77;3.37;;;;;;;12.95;53.38;97551.00;128546;1101;62030;-82
2021/05/05 08:15:34;;;;;;;7.47;3.47;;;;;;;12.91;53.06;97557.67;128516;1101;62044;-81
2021/05/05 08:18:06;;;;;;;4.37;2.50;;;;;;;12.95;53.12;97548.33;128490;1101;62049;-81
2021/05/05 08:20:42;;;;;;;7.50;3.10;;;;;;;12.98;52.75;97545.34;128816;1100;61910;-82
2021/05/05 08:23:25;;;;;;;7.30;4.13;;;;;;;13.05;52.33;97551.72;128904;1098;61985;-81
2021/05/05 08:26:04;;;;;;;6.27;3.30;;;;;;;13.19;52.06;97550.25;128856;1099;62177;-81
2021/05/05 08:28:45;;;;;;;8.03;3.33;;;;;;;13.39;51.19;97545.46;129140;1098;61941;-81
2021/05/05 08:31:26;;;;;;;7.23;2.77;;;;;;;13.56;51.58;97547.17;128855;1098;61999;-81
2021/05/05 08:33:56;;;;;;;6.60;2.77;;;;;;;13.80;50.77;97551.69;128897;1099;62459;-81
2021/05/05 08:36:40;;;;;;;10.20;2.50;;;;;;;13.85;50.79;97546.67;128889;1099;62138;-81
2021/05/05 08:39:21;;;;;;;3.40;1.83;;;;;;;13.83;51.20;97535.27;129137;1098;62026;-81
2021/05/05 08:42:15;;;;;;;4.60;2.70;;;;;;;13.90;51.07;97525.54;128882;1099;61982;-81
2021/05/05 08:45:08;;;;;;;7.63;2.30;;;;;;;13.92;52.06;97536.94;128781;1100;61964;-81
2021/05/05 08:47:59;;;;;;;11.03;2.93;;;;;;;13.96;52.13;97537.45;128929;1098;61914;-81
2021/05/05 08:50:39;;;;;;;10.90;2.17;;;;;;;14.04;51.73;97535.58;129144;1098;63062;-81
2021/05/05 08:53:22;;;;;;;10.10;2.47;;;;;;;14.09;51.56;97531.56;128875;1098;62101;-82
2021/05/05 08:56:02;;;;;;;3.83;2.23;;;;;;;14.03;51.32;97530.39;128807;1100;62029;-82
2021/05/05 08:58:47;;;;;;;7.00;2.83;;;;;;;14.00;51.22;97533.43;128873;1099;63251;-82
2021/05/05 09:01:17;;;;;;;7.47;2.70;;;;;;;13.94;50.13;97534.94;128861;1099;61996;-81
2021/05/05 09:03:44;;;;;;;10.37;3.20;;;;;;;13.86;50.72;97528.72;128835;1099;62076;-82
2021/05/05 09:06:16;;;;;;;10.10;2.50;;;;;;;14.03;51.11;97525.02;128840;1098;62365;-83
2021/05/05 09:09:00;;;;;;;4.43;2.33;;;;;;;14.38;51.37;97517.56;128858;1099;62309;-81
2021/05/05 09:11:46;;;;;;;6.17;2.27;;;;;;;14.97;50.63;97516.22;128820;1100;62537;-80
2021/05/05 09:14:21;;;;;;;7.73;2.70;;;;;;;15.15;49.59;97529.41;128819;1099;62232;-83
2021/05/05 09:16:51;;;;;;;8.10;2.73;;;;;;;15.02;50.47;97521.08;128833;1098;63769;-81
2021/05/05 09:19:21;;;;;;;11.93;2.90;;;;;;;15.14;50.17;97538.45;128830;1098;62113;-81
2021/05/05 09:22:04;;;;;;;5.53;2.10;;;;;;;15.14;50.34;97525.02;128873;1098;62103;-82
2021/05/05 09:24:52;;;;;;;8.63;2.83;;;;;;;15.15;50.78;97529.41;128839;1098;61915;-83
2021/05/05 09:27:25;;;;;;;3.07;1.77;;;;;;;15.35;50.36;97530.63;128868;1098;62296;-83
2021/05/05 09:30:03;;;;;;;11.60;2.50;;;;;;;15.32;50.20;97540.88;128866;1099;63028;-81
2021/05/05 09:33:02;;;;;;;13.40;2.53;;;;;;;15.33;50.74;97543.42;128804;1098;62165;-80
2021/05/05 09:35:44;;;;;;;14.97;3.00;;;;;;;15.29;49.83;97544.78;128814;1100;62245;-81
2021/05/05 09:38:22;;;;;;;7.60;2.40;;;;;;;15.13;49.94;97552.92;128779;1100;62106;-82
2021/05/05 09:41:00;;;;;;;4.30;1.97;;;;;;;14.96;50.14;97562.93;128840;1099;62109;-82
2021/05/05 09:43:38;;;;;;;;;;;;;;;14.86;49.54;97549.69;128892;1099;62647;-82
2021/05/05 09:46:51;;;;;;;8.83;2.63;;;;;;;14.68;49.65;97562.51;128842;1099;62136;-83
2021/05/05 09:49:38;;;;;;;4.97;2.50;;;;;;;14.49;49.91;97561.05;128881;1098;62026;-82
2021/05/05 09:52:18;;;;;;;7.43;2.13;;;;;;;14.42;49.65;97561.88;128829;1098;62086;-82
2021/05/05 09:55:03;;;;;;;5.53;2.07;;;;;;;14.37;49.83;97566.92;128844;1098;62024;-82
2021/05/05 09:57:44;;;;;;;9.83;2.77;;;;;;;14.47;50.18;97576.51;128827;1098;62236;-83
2021/05/05 10:00:16;;;;;;;4.27;1.70;;;;;;;14.52;50.15;97566.09;128813;1098;61981;-81
2021/05/05 10:03:21;;;;;;;8.63;2.00;;;;;;;14.51;49.93;97574.33;128882;1098;62379;-82
2021/05/05 10:05:48;;;;;;;5.17;1.87;;;;;;;14.42;49.83;97576.14;129070;1098;61917;-81
2021/05/05 10:08:20;;;;;;;4.10;1.80;;;;;;;14.37;49.82;97578.50;128859;1099;61993;-81
2021/05/05 10:10:53;;;;;;;7.27;2.37;;;;;;;14.20;49.13;97571.49;128863;1099;62896;-83
2021/05/05 10:13:20;;;;;;;7.33;2.90;;;;;;;14.08;47.91;97565.63;129122;1098;62181;-83
2021/05/05 10:15:50;;;;;;;9.67;2.83;;;;;;;13.99;49.13;97569.30;128834;1099;62033;-81
2021/05/05 10:18:18;;;;;;;16.33;4.60;;;;;;;14.22;49.21;97575.67;129074;1098;61934;-82
2021/05/05 10:21:03;;;;;;;12.20;4.10;;;;;;;14.33;49.30;97569.13;128850;1098;61918;-83
2021/05/05 10:23:52;;;;;;;34.07;4.37;;;;;;;14.32;49.50;97575.51;128841;1098;63041;-82
2021/05/05 10:26:23;;;;;;;14.03;4.73;;;;;;;14.29;49.11;97581.20;128812;1098;62421;-82
2021/05/05 10:29:05;;;;;;;18.53;4.10;;;;;;;14.27;49.27;97570.64;128820;1099;62024;-82
2021/05/05 10:32:21;;;;;;;;;;;;;;;;;;;;;
2021/05/05 10:35:21;;;;;;;;;;;;;;;;;;;;;
2021/05/05 10:37:58;;;;;;;5.83;2.90;;;;;;;13.91;49.76;97566.63;128863;1098;63054;-82
2021/05/05 10:40:52;;;;;;;6.57;2.90;;;;;;;13.77;49.66;97565.45;128864;1099;62055;-83
2021/05/05 10:44:06;;;;;;;5.93;3.77;;;;;;;13.81;49.46;97571.34;128846;1098;61955;-81
2021/05/05 10:47:12;;;;;;;10.10;2.80;;;;;;;13.97;49.60;97566.80;129140;1098;62266;-83
2021/05/05 10:50:13;;;;;;;15.47;3.33;;;;;;;14.37;49.54;97562.38;128842;1098;62476;-81
2021/05/05 10:52:57;;;;;;;7.40;2.78;;;;;;;14.60;49.11;97562.55;129096;1098;61999;-81
2021/05/05 10:55:36;;;;;;;22.97;5.00;;;;;;;14.85;49.22;97558.77;129072;1098;62634;-81
2021/05/05 10:58:18;;;;;;;10.67;2.53;;;;;;;14.92;49.10;97552.69;128806;1098;62168;-81
2021/05/05 11:01:00;;;;;;;8.73;2.40;;;;;;;15.13;49.87;97542.16;128871;1098;61996;-81
2021/05/05 11:03:45;;;;;;;9.47;2.37;;;;;;;15.43;49.50;97539.66;128852;1098;62064;-81
2021/05/05 11:06:47;;;;;;;6.63;2.30;;;;;;;15.69;48.80;97537.47;128850;1098;62880;-82
2021/05/05 11:09:18;;;;;;;5.93;2.33;;;;;;;15.94;49.10;97536.27;129093;1098;61974;-81
2021/05/05 11:12:22;;;;;;;7.70;2.90;;;;;;;16.23;48.86;97540.06;128856;1098;61983;-82
2021/05/05 11:15:04;;;;;;;8.90;2.90;;;;;;;16.28;47.82;97536.80;128858;1098;62418;-82
2021/05/05 11:17:31;;;;;;;56.13;5.67;;;;;;;16.43;48.86;97538.50;128834;1098;62058;-82
2021/05/05 11:20:09;;;;;;;6.73;3.73;;;;;;;16.37;48.03;97524.94;128821;1099;62991;-82
2021/05/05 11:23:05;;;;;;;11.30;3.73;;;;;;;16.15;48.67;97514.02;128787;1098;61938;-81
2021/05/05 11:25:40;;;;;;;11.23;2.60;;;;;;;16.51;49.21;97510.63;129122;1098;62091;-81
2021/05/05 11:28:16;;;;;;;7.97;4.40;;;;;;;16.79;48.44;97515.38;129117;1098;62199;-81
2021/05/05 11:30:57;;;;;;;8.27;2.90;;;;;;;16.95;48.77;97516.02;128833;1099;62577;-82
2021/05/05 11:34:05;;;;;;;9.67;2.80;;;;;;;17.12;48.41;97521.22;128869;1100;62268;-83
2021/05/05 11:36:44;;;;;;;9.03;2.33;;;;;;;17.28;47.68;97519.11;129037;1098;62275;-82
2021/05/05 11:39:29;;;;;;;6.23;2.10;;;;;;;17.23;47.87;97518.00;129071;1098;61971;-81
2021/05/05 11:42:20;;;;;;;4.57;1.90;;;;;;;17.22;48.27;97510.94;129074;1098;62078;-82
2021/05/05 11:45:00;;;;;;;6.77;2.60;;;;;;;17.58;48.11;97504.69;129143;1098;62019;-82
2021/05/05 11:47:42;;;;;;;11.27;2.60;;;;;;;17.69;46.61;97496.09;128847;1100;62152;-82
2021/05/05 11:50:34;;;;;;;12.63;3.53;;;;;;;17.71;47.09;97497.59;128872;1098;62023;-80
2021/05/05 11:53:09;;;;;;;12.47;3.67;;;;;;;18.18;47.37;97489.86;129101;1098;62025;-82
2021/05/05 11:55:55;;;;;;;9.40;3.00;;;;;;;18.24;47.33;97497.18;129125;1098;62099;-83
2021/05/05 11:58:24;;;;;;;;;;;;;;;18.18;47.03;97497.96;129119;1098;62032;-81
2021/05/05 12:01:14;;;;;;;6.47;2.67;;;;;;;18.31;46.99;97509.70;128834;1099;63015;-81
2021/05/05 12:03:51;;;;;;;11.33;2.80;;;;;;;18.44;46.04;97492.73;128836;1099;62099;-81
2021/05/05 12:06:18;;;;;;;8.20;2.80;;;;;;;17.96;42.61;97495.31;128796;1100;62217;-84
2021/05/05 12:08:59;;;;;;;4.60;1.60;;;;;;;17.60;42.79;97500.76;128847;1098;61957;-86
2021/05/05 12:11:31;;;;;;;5.67;2.00;;;;;;;17.30;42.52;97500.02;128867;1098;61974;-83
2021/05/05 12:14:30;;;;;;;10.23;2.10;;;;;;;16.90;43.36;97515.74;128873;1098;62950;-83
2021/05/05 12:17:44;;;;;;;12.03;3.20;;;;;;;17.00;45.80;97527.09;128876;1098;62034;-83
2021/05/05 12:20:37;;;;;;;10.57;2.00;;;;;;;17.37;45.24;97514.45;128923;1098;62056;-83
2021/05/05 12:23:17;;;;;;;5.00;2.30;;;;;;;17.28;44.86;97513.71;128926;1098;61955;-82
2021/05/05 12:25:46;;;;;;;5.83;2.43;;;;;;;17.36;45.66;97512.75;128901;1098;61841;-82
2021/05/05 12:28:27;;;;;;;5.10;2.03;;;;;;;17.35;44.59;97511.09;128913;1098;62983;-84
2021/05/05 12:30:57;;;;;;;6.43;2.20;;;;;;;17.12;45.83;97526.61;128830;1098;62163;-84
2021/05/05 12:33:46;;;;;;;8.87;1.97;;;;;;;17.01;44.95;97523.36;128832;1098;61926;-84
2021/05/05 12:36:23;;;;;;;5.23;2.17;;;;;;;16.95;45.81;97518.72;128806;1100;62248;-84
2021/05/05 12:38:59;;;;;;;5.33;1.90;;;;;;;16.97;45.91;97513.96;128817;1100;61945;-84
2021/05/05 12:42:00;;;;;;;7.20;2.17;;;;;;;16.86;45.49;97514.47;128835;1098;62306;-84
2021/05/05 12:44:35;;;;;;;8.07;2.47;;;;;;;16.81;44.21;97516.88;128808;1098;61930;-83
2021/05/05 12:47:38;;;;;;;13.40;2.20;;;;;;;16.56;43.91;97523.55;128825;1100;62024;-83
2021/05/05 12:50:12;;;;;;;7.93;1.93;;;;;;;16.49;44.01;97513.52;128797;1098;61898;-82
2021/05/05 12:52:58;;;;;;;7.20;2.10;;;;;;;16.51;42.10;97520.57;128844;1099;61861;-82
2021/05/05 12:55:42;;;;;;;7.43;1.77;;;;;;;16.57;44.54;97507.19;128811;1100;62116;-82
2021/05/05 12:58:25;;;;;;;5.80;1.93;;;;;;;16.73;44.66;97514.27;128785;1100;62071;-83
2021/05/05 13:01:11;;;;;;;5.27;1.97;;;;;;;16.86;43.41;97513.60;128784;1100;61964;-83
2021/05/05 13:03:47;;;;;;;7.43;1.67;;;;;;;16.51;43.41;97521.41;128873;1098;61982;-82
2021/05/05 13:06:15;;;;;;;3.30;1.57;;;;;;;16.49;43.85;97520.77;128793;1101;62025;-82
2021/05/05 13:08:57;;;;;;;4.43;1.80;;;;;;;16.37;43.10;97501.52;128826;1098;62084;-82
2021/05/05 13:11:46;;;;;;;4.35;2.38;;;;;;;16.10;44.33;97519.14;128841;1098;61979;-83
2021/05/05 13:18:33;;;;;;;4.80;1.83;;;;;;;15.76;44.08;97521.44;128727;1098;61945;-83
2021/05/05 13:33:13;;;;;;;5.73;3.00;;;;;;;15.84;45.02;97510.59;128884;1098;62110;-81
2021/05/05 13:35:56;;;;;;;7.63;3.43;;;;;;;16.39;46.04;97515.63;128891;1098;61960;-82
2021/05/05 13:38:52;;;;;;;6.33;3.20;;;;;;;17.38;45.98;97507.19;128881;1098;62088;-83
2021/05/05 13:41:33;;;;;;;4.60;2.40;;;;;;;17.91;44.72;97507.73;128855;1098;62255;-84
2021/05/05 13:44:13;;;;;;;4.70;2.40;;;;;;;17.79;44.88;97510.94;128834;1098;61994;-83
2021/05/05 13:49:55;;;;;;;5.40;2.00;;;;;;;16.75;44.87;97504.16;128754;1100;62023;-84
2021/05/05 13:52:27;;;;;;;5.07;2.97;;;;;;;16.11;45.12;97519.97;128837;1100;63129;-85
2021/05/05 13:55:51;;;;;;;8.33;3.47;;;;;;;15.59;45.35;97526.10;128822;1099;62074;-84
2021/05/05 13:58:02;;;;;;;5.57;2.63;;;;;;;15.02;45.54;97540.73;129091;1098;62006;-82
2021/05/05 14:00:40;;;;;;;4.43;2.27;;;;;;;14.52;44.71;97552.66;128850;1099;61991;-82
2021/05/05 14:03:18;;;;;;;11.40;4.23;;;;;;;14.09;45.28;97532.40;128830;1100;62064;-83
2021/05/05 14:06:20;;;;;;;12.50;5.60;;;;;;;14.10;45.67;97528.70;128920;1098;63128;-82